createdAt,value
2023-06-05T00:01:40.753Z,3.60
2023-06-05T00:04:12.795Z,4.60
2023-06-05T00:06:45.030Z,5.93
2023-06-05T00:09:17.065Z,3.67
2023-06-05T00:11:48.891Z,3.90
2023-06-05T00:14:20.670Z,4.47
2023-06-05T00:16:52.904Z,3.67
2023-06-05T00:19:24.822Z,4.23
2023-06-05T00:21:56.706Z,3.40
2023-06-05T00:24:28.457Z,4.30
2023-06-05T00:27:00.196Z,5.33
2023-06-05T00:29:32.072Z,4.83
2023-06-05T00:32:04.062Z,3.80
2023-06-05T00:34:35.852Z,4.10
2023-06-05T00:37:07.923Z,4.40
2023-06-05T00:39:40.389Z,3.80
2023-06-05T00:42:12.349Z,3.83
2023-06-05T00:44:44.251Z,3.77
2023-06-05T00:47:16.369Z,3.70
2023-06-05T00:49:49.203Z,4.67
2023-06-05T00:52:21.891Z,6.20
2023-06-05T00:54:54.086Z,4.10
2023-06-05T00:57:27.956Z,3.87
2023-06-05T00:59:59.963Z,4.30
2023-06-05T01:02:31.902Z,4.03
2023-06-05T01:05:04.839Z,4.73
2023-06-05T01:07:39.567Z,4.60
2023-06-05T01:10:11.589Z,4.23
2023-06-05T01:12:53.106Z,3.80
2023-06-05T01:15:29.582Z,4.87
2023-06-05T01:18:01.875Z,3.80
2023-06-05T01:20:38.356Z,4.10
2023-06-05T01:23:10.460Z,5.53
2023-06-05T01:25:43.280Z,4.17
2023-06-05T01:28:24.027Z,4.15
2023-06-05T01:31:10.171Z,4.20
2023-06-05T01:33:51.115Z,4.90
2023-06-05T01:36:23.420Z,5.90
2023-06-05T01:38:57.538Z,5.20
2023-06-05T01:41:29.960Z,4.40
2023-06-05T01:44:02.866Z,4.80
2023-06-05T01:46:34.946Z,5.10
2023-06-05T01:49:07.117Z,3.80
2023-06-05T01:51:38.964Z,4.30
2023-06-05T01:54:10.868Z,3.97
2023-06-05T01:56:44.748Z,4.40
2023-06-05T01:59:17.054Z,4.00
2023-06-05T02:01:50.217Z,4.47
2023-06-05T02:04:22.952Z,4.47
2023-06-05T02:06:54.910Z,4.77
2023-06-05T02:09:26.878Z,7.40
2023-06-05T02:11:59.207Z,4.57
2023-06-05T02:14:33.001Z,3.10
2023-06-05T02:17:08.828Z,5.97
2023-06-05T02:19:41.566Z,4.57
2023-06-05T02:22:13.276Z,4.53
2023-06-05T02:24:45.734Z,3.97
2023-06-05T02:27:17.784Z,5.40
2023-06-05T02:29:49.569Z,4.37
2023-06-05T02:32:21.294Z,3.92
2023-06-05T02:34:58.001Z,4.43
2023-06-05T02:37:29.828Z,5.40
2023-06-05T02:40:01.744Z,6.47
2023-06-05T02:42:33.556Z,4.73
2023-06-05T02:45:05.855Z,4.53
2023-06-05T02:47:38.063Z,5.10
2023-06-05T02:50:10.115Z,4.30
2023-06-05T02:52:41.977Z,4.20
2023-06-05T02:55:13.856Z,4.70
2023-06-05T02:57:45.702Z,4.40
2023-06-05T03:00:18.205Z,4.33
2023-06-05T03:02:50.889Z,5.60
2023-06-05T03:05:26.552Z,4.67
2023-06-05T03:07:58.633Z,4.80
2023-06-05T03:10:30.679Z,4.50
2023-06-05T03:13:02.483Z,6.30
2023-06-05T03:15:35.682Z,4.60
2023-06-05T03:18:07.533Z,4.40
2023-06-05T03:20:39.476Z,3.92
2023-06-05T03:23:11.332Z,6.00
2023-06-05T03:25:43.647Z,4.20
2023-06-05T03:28:15.423Z,4.40
2023-06-05T03:30:48.029Z,4.80
2023-06-05T03:33:19.867Z,5.60
2023-06-05T03:35:53.686Z,4.60
2023-06-05T03:38:25.447Z,4.80
2023-06-05T03:40:57.277Z,3.57
2023-06-05T03:43:29.119Z,4.67
2023-06-05T03:46:00.964Z,8.83
2023-06-05T03:48:32.779Z,3.97
2023-06-05T03:51:07.113Z,4.67
2023-06-05T03:53:44.345Z,4.37
2023-06-05T03:56:16.651Z,4.83
2023-06-05T03:58:49.542Z,4.60
2023-06-05T04:01:21.368Z,4.97
2023-06-05T04:03:53.261Z,4.17
2023-06-05T04:06:25.080Z,4.77
2023-06-05T04:08:56.805Z,6.10
2023-06-05T04:11:29.224Z,5.23
2023-06-05T04:14:01.239Z,4.33
2023-06-05T04:16:35.188Z,5.13
2023-06-05T04:19:07.873Z,4.73
2023-06-05T04:21:40.109Z,4.40
2023-06-05T04:24:12.436Z,6.72
2023-06-05T04:26:44.675Z,5.30
2023-06-05T04:29:17.867Z,4.87
2023-06-05T04:31:49.873Z,5.87
2023-06-05T04:34:21.771Z,6.83
2023-06-05T04:36:53.579Z,5.73
2023-06-05T04:39:25.581Z,5.10
2023-06-05T04:42:14.125Z,4.47
2023-06-05T04:44:58.602Z,4.70
2023-06-05T04:47:31.073Z,4.20
2023-06-05T04:50:05.160Z,4.40
2023-06-05T04:52:37.113Z,4.90
2023-06-05T04:55:09.217Z,4.07
2023-06-05T04:57:41.621Z,4.10
2023-06-05T05:00:14.027Z,3.87
2023-06-05T05:02:46.517Z,4.47
2023-06-05T05:05:19.094Z,7.50
2023-06-05T05:07:51.060Z,4.67
2023-06-05T05:10:23.005Z,5.00
2023-06-05T05:12:54.793Z,3.87
2023-06-05T05:15:28.013Z,3.90
2023-06-05T05:17:59.790Z,4.00
2023-06-05T05:20:33.365Z,4.83
2023-06-05T05:23:05.460Z,5.77
2023-06-05T05:25:39.516Z,4.30
2023-06-05T05:28:11.349Z,4.57
2023-06-05T05:30:43.138Z,4.57
2023-06-05T05:33:15.813Z,5.90
2023-06-05T05:35:47.586Z,4.43
2023-06-05T05:38:19.550Z,5.27
2023-06-05T05:40:53.282Z,4.73
2023-06-05T05:43:26.576Z,4.95
2023-06-05T05:45:58.450Z,6.00
2023-06-05T05:48:30.447Z,5.07
2023-06-05T05:51:02.188Z,5.37
2023-06-05T05:53:34.036Z,11.13
2023-06-05T05:56:05.889Z,6.53
2023-06-05T05:58:37.693Z,5.67
2023-06-05T06:01:09.701Z,6.73
2023-06-05T06:03:41.819Z,5.57
2023-06-05T06:06:14.134Z,10.73
2023-06-05T06:08:46.099Z,12.23
2023-06-05T06:11:17.978Z,5.63
2023-06-05T06:13:50.022Z,6.20
2023-06-05T06:16:21.916Z,5.23
2023-06-05T06:18:53.885Z,5.10
2023-06-05T06:21:26.836Z,7.27
2023-06-05T06:23:58.843Z,5.80
2023-06-05T06:26:32.105Z,6.50
2023-06-05T06:29:04.034Z,6.40
2023-06-05T06:31:37.674Z,5.28
2023-06-05T06:34:11.207Z,6.00
2023-06-05T06:36:44.953Z,8.50
2023-06-05T06:39:16.750Z,5.20
2023-06-05T06:41:48.504Z,5.40
2023-06-05T06:44:20.445Z,6.13
2023-06-05T06:46:52.463Z,6.70
2023-06-05T06:49:24.292Z,5.67
2023-06-05T06:51:56.245Z,6.30
2023-06-05T06:54:29.699Z,8.47
2023-06-05T06:57:02.157Z,6.73
2023-06-05T06:59:34.157Z,5.33
2023-06-05T07:02:15.512Z,7.15
2023-06-05T07:04:48.293Z,6.40
2023-06-05T07:07:22.434Z,7.00
2023-06-05T07:09:54.195Z,7.30
2023-06-05T07:12:25.979Z,5.20
2023-06-05T07:14:57.812Z,6.87
2023-06-05T07:17:31.282Z,5.30
2023-06-05T07:20:05.550Z,6.07
2023-06-05T07:22:37.290Z,5.77
2023-06-05T07:25:10.312Z,4.90
2023-06-05T07:27:42.521Z,8.27
2023-06-05T07:30:15.217Z,5.83
2023-06-05T07:32:47.179Z,6.13
2023-06-05T07:35:19.076Z,5.80
2023-06-05T07:37:50.839Z,7.10
2023-06-05T07:40:22.782Z,6.10
2023-06-05T07:42:54.517Z,6.33
2023-06-05T07:45:26.465Z,6.87
2023-06-05T07:47:58.299Z,9.57
2023-06-05T07:50:31.203Z,6.43
2023-06-05T07:53:04.443Z,6.10
2023-06-05T07:55:36.346Z,6.63
2023-06-05T07:58:08.235Z,7.50
2023-06-05T08:00:42.657Z,7.70
2023-06-05T08:03:21.516Z,7.90
2023-06-05T08:05:53.888Z,8.70
2023-06-05T08:08:26.045Z,7.73
2023-06-05T08:10:57.848Z,7.37
2023-06-05T08:13:30.852Z,7.33
2023-06-05T08:16:03.508Z,7.80
2023-06-05T08:18:35.457Z,7.40
2023-06-05T08:21:07.704Z,10.97
2023-06-05T08:23:39.958Z,7.75
2023-06-05T08:26:11.994Z,8.00
2023-06-05T08:28:43.876Z,9.53
2023-06-05T08:31:15.663Z,9.77
2023-06-05T08:33:47.526Z,9.17
2023-06-05T08:36:19.421Z,9.13
2023-06-05T08:38:51.222Z,9.55
2023-06-05T08:41:24.985Z,8.55
2023-06-05T08:43:56.778Z,10.35
2023-06-05T08:46:32.009Z,9.43
2023-06-05T08:49:11.509Z,8.13
2023-06-05T08:51:45.149Z,8.80
2023-06-05T08:54:18.789Z,8.73
2023-06-05T08:56:52.572Z,8.45
2023-06-05T08:59:25.977Z,9.63
2023-06-05T09:01:58.556Z,9.07
2023-06-05T09:04:31.461Z,8.70
2023-06-05T09:07:04.750Z,8.40
2023-06-05T09:09:37.237Z,8.40
2023-06-05T09:12:12.927Z,8.77
2023-06-05T09:14:44.649Z,8.32
2023-06-05T09:17:18.015Z,9.73
2023-06-05T09:19:51.389Z,9.65
2023-06-05T09:22:34.803Z,9.10
2023-06-05T09:25:06.848Z,9.55
2023-06-05T09:27:39.840Z,11.05
2023-06-05T09:30:12.126Z,8.70
2023-06-05T09:32:43.980Z,8.45
2023-06-05T09:35:19.035Z,9.65
2023-06-05T09:37:50.816Z,8.13
2023-06-05T09:40:38.509Z,8.52
2023-06-05T09:43:23.917Z,8.40
2023-06-05T09:45:55.825Z,8.82
2023-06-05T09:48:28.233Z,8.32
2023-06-05T09:51:13.554Z,7.78
2023-06-05T09:53:48.006Z,8.00
2023-06-05T09:56:22.802Z,8.13
2023-06-05T09:58:54.718Z,8.23
2023-06-05T10:01:29.323Z,9.10
2023-06-05T10:04:06.922Z,9.27
2023-06-05T10:06:40.924Z,12.00
2023-06-05T10:09:13.043Z,19.90
2023-06-05T10:11:48.650Z,9.25
2023-06-05T10:14:21.584Z,8.85
2023-06-05T10:16:54.298Z,9.23
2023-06-05T10:19:26.101Z,9.40
2023-06-05T10:21:57.846Z,9.02
2023-06-05T10:24:37.252Z,8.63
2023-06-05T10:27:10.972Z,8.98
2023-06-05T10:30:08.096Z,9.70
2023-06-05T10:33:02.674Z,9.65
2023-06-05T10:35:47.999Z,9.33
2023-06-05T10:38:27.196Z,9.23
2023-06-05T10:41:00.642Z,9.13
2023-06-05T10:43:32.395Z,9.60
2023-06-05T10:46:37.396Z,9.03
2023-06-05T10:49:10.087Z,9.23
2023-06-05T10:51:44.666Z,13.50
2023-06-05T10:54:25.535Z,12.35
2023-06-05T10:57:06.832Z,9.55
2023-06-05T10:59:40.761Z,9.73
2023-06-05T11:02:19.892Z,8.05
2023-06-05T11:04:56.627Z,8.27
2023-06-05T11:07:31.712Z,8.32
2023-06-05T11:10:03.700Z,7.63
2023-06-05T11:12:44.313Z,8.38
2023-06-05T11:15:16.858Z,12.82
2023-06-05T11:17:48.862Z,8.02
2023-06-05T11:20:29.987Z,8.75
2023-06-05T11:23:02.076Z,8.13
2023-06-05T11:25:34.395Z,7.88
2023-06-05T11:28:09.115Z,11.23
2023-06-05T11:30:48.914Z,8.23
2023-06-05T11:33:22.739Z,8.03
2023-06-05T11:36:01.372Z,8.52
2023-06-05T11:38:33.623Z,8.50
2023-06-05T11:41:10.005Z,8.10
2023-06-05T11:43:45.201Z,9.10
2023-06-05T11:46:17.368Z,7.77
2023-06-05T11:48:49.247Z,8.43
2023-06-05T11:51:21.032Z,7.40
2023-06-05T11:53:54.437Z,8.10
2023-06-05T11:56:28.654Z,8.73
2023-06-05T11:59:00.553Z,8.33
2023-06-05T12:01:32.903Z,8.33
2023-06-05T12:04:07.476Z,8.40
2023-06-05T12:06:43.288Z,7.97
2023-06-05T12:09:16.861Z,7.67
2023-06-05T12:11:49.332Z,7.27
2023-06-05T12:14:31.123Z,8.37
2023-06-05T12:17:10.906Z,7.40
2023-06-05T12:19:42.824Z,9.40
2023-06-05T12:22:15.077Z,8.60
2023-06-05T12:24:47.215Z,7.77
2023-06-05T12:27:30.517Z,8.13
2023-06-05T12:30:02.328Z,8.40
2023-06-05T12:32:34.315Z,7.47
2023-06-05T12:35:09.261Z,8.50
2023-06-05T12:37:41.571Z,7.37
2023-06-05T12:40:21.821Z,7.10
2023-06-05T12:43:01.037Z,7.80
2023-06-05T12:45:34.556Z,8.60
2023-06-05T12:48:07.595Z,10.43
2023-06-05T12:50:42.420Z,7.60
2023-06-05T12:53:14.179Z,11.77
2023-06-05T12:55:46.438Z,8.10
2023-06-05T12:58:18.368Z,7.07
2023-06-05T13:00:50.181Z,7.37
2023-06-05T13:03:22.011Z,7.67
2023-06-05T13:05:53.917Z,7.30
2023-06-05T13:08:26.566Z,6.97
2023-06-05T13:10:58.353Z,7.10
2023-06-05T13:13:30.915Z,6.90
2023-06-05T13:16:02.723Z,7.20
2023-06-05T13:18:34.653Z,7.20
2023-06-05T13:21:06.792Z,6.90
2023-06-05T13:23:38.738Z,6.63
2023-06-05T13:26:10.951Z,7.10
2023-06-05T13:28:45.450Z,6.63
2023-06-05T13:31:18.161Z,7.03
2023-06-05T13:33:49.928Z,6.73
2023-06-05T13:36:22.071Z,7.10
2023-06-05T13:38:54.000Z,6.80
2023-06-05T13:41:26.397Z,7.10
2023-06-05T13:43:59.313Z,7.00
2023-06-05T13:46:31.151Z,7.60
2023-06-05T13:49:05.015Z,7.43
2023-06-05T13:51:39.305Z,6.60
2023-06-05T13:54:11.129Z,8.10
2023-06-05T13:56:42.876Z,7.60
2023-06-05T13:59:14.711Z,8.53
2023-06-05T14:01:46.556Z,7.30
2023-06-05T14:04:19.334Z,7.23
2023-06-05T14:06:51.242Z,7.70
2023-06-05T14:09:23.039Z,7.20
2023-06-05T14:11:54.938Z,7.40
2023-06-05T14:14:26.854Z,7.80
2023-06-05T14:16:58.680Z,7.27
2023-06-05T14:19:30.484Z,7.80
2023-06-05T14:22:02.536Z,7.23
2023-06-05T14:24:34.500Z,6.77
2023-06-05T14:27:06.424Z,6.87
2023-06-05T14:29:38.242Z,11.00
2023-06-05T14:32:10.042Z,7.67
2023-06-05T14:34:41.832Z,9.20
2023-06-05T14:37:13.596Z,8.40
2023-06-05T14:39:45.370Z,7.40
2023-06-05T14:42:17.611Z,10.27
2023-06-05T14:44:49.388Z,7.97
2023-06-05T14:47:21.363Z,8.23
2023-06-05T14:49:53.115Z,8.00
2023-06-05T14:52:24.859Z,6.53
2023-06-05T14:55:04.778Z,8.50
2023-06-05T14:57:37.859Z,7.63
2023-06-05T15:00:10.300Z,6.23
2023-06-05T15:02:42.218Z,7.80
2023-06-05T15:05:15.368Z,6.80
2023-06-05T15:07:47.227Z,7.10
2023-06-05T15:10:19.695Z,7.13
2023-06-05T15:12:57.273Z,8.87
2023-06-05T15:15:30.041Z,8.87
2023-06-05T15:18:02.253Z,7.10
2023-06-05T15:20:34.382Z,7.17
2023-06-05T15:23:16.205Z,8.00
2023-06-05T15:25:48.919Z,8.63
2023-06-05T15:28:20.776Z,7.27
2023-06-05T15:30:52.544Z,7.70
2023-06-05T15:33:24.390Z,7.87
2023-06-05T15:35:56.293Z,6.93
2023-06-05T15:38:28.084Z,7.63
2023-06-05T15:40:59.947Z,6.83
2023-06-05T15:43:32.059Z,6.83
2023-06-05T15:46:04.093Z,6.93
2023-06-05T15:48:35.987Z,6.43
2023-06-05T15:51:07.992Z,5.97
2023-06-05T15:53:54.986Z,6.20
2023-06-05T15:56:30.098Z,6.57
2023-06-05T15:59:01.855Z,8.57
2023-06-05T16:01:33.653Z,6.47
2023-06-05T16:04:06.233Z,7.03
2023-06-05T16:06:38.101Z,6.78
2023-06-05T16:09:10.482Z,6.90
2023-06-05T16:11:42.241Z,6.40
2023-06-05T16:14:13.998Z,7.00
2023-06-05T16:16:46.004Z,7.17
2023-06-05T16:19:17.895Z,6.47
2023-06-05T16:21:49.764Z,6.30
2023-06-05T16:24:21.594Z,6.30
2023-06-05T16:26:53.511Z,7.10
2023-06-05T16:29:25.424Z,5.43
2023-06-05T16:31:57.293Z,7.10
2023-06-05T16:34:29.119Z,6.07
2023-06-05T16:37:00.903Z,5.87
2023-06-05T16:39:32.804Z,6.13
2023-06-05T16:42:06.460Z,6.37
2023-06-05T16:44:38.260Z,5.63
2023-06-05T16:47:10.064Z,7.17
2023-06-05T16:49:41.835Z,6.70
2023-06-05T16:52:13.575Z,6.73
2023-06-05T16:54:45.285Z,6.30
2023-06-05T16:57:17.200Z,6.37
2023-06-05T16:59:48.958Z,6.87
2023-06-05T17:02:21.056Z,8.40
2023-06-05T17:04:53.333Z,7.17
2023-06-05T17:07:25.532Z,7.27
2023-06-05T17:09:57.459Z,7.07
2023-06-05T17:12:29.456Z,6.60
2023-06-05T17:15:01.262Z,5.50
2023-06-05T17:17:33.011Z,6.37
2023-06-05T17:20:05.512Z,7.00
2023-06-05T17:22:37.576Z,7.30
2023-06-05T17:25:12.186Z,8.13
2023-06-05T17:27:44.122Z,5.60
2023-06-05T17:30:15.982Z,7.60
2023-06-05T17:32:47.777Z,6.23
2023-06-05T17:35:20.953Z,7.18
2023-06-05T17:37:52.800Z,6.33
2023-06-05T17:40:24.641Z,6.00
2023-06-05T17:42:56.441Z,5.75
2023-06-05T17:45:28.419Z,6.17
2023-06-05T17:48:00.897Z,6.20
2023-06-05T17:50:32.906Z,5.90
2023-06-05T17:53:05.411Z,5.80
2023-06-05T17:55:37.535Z,6.13
2023-06-05T17:58:09.386Z,6.37
2023-06-05T18:00:41.440Z,5.50
2023-06-05T18:03:13.533Z,5.90
2023-06-05T18:05:45.541Z,7.50
2023-06-05T18:08:17.345Z,6.27
2023-06-05T18:10:49.503Z,5.30
2023-06-05T18:13:21.386Z,5.70
2023-06-05T18:15:53.185Z,6.27
2023-06-05T18:18:24.935Z,6.63
2023-06-05T18:20:56.808Z,6.60
2023-06-05T18:23:28.604Z,7.43
2023-06-05T18:26:00.454Z,5.72
2023-06-05T18:28:32.693Z,5.70
2023-06-05T18:31:04.463Z,6.30
2023-06-05T18:33:36.180Z,6.10
2023-06-05T18:36:08.037Z,6.33
2023-06-05T18:38:40.410Z,7.00
2023-06-05T18:41:12.666Z,5.50
2023-06-05T18:43:44.646Z,6.53
2023-06-05T18:46:16.613Z,7.97
2023-06-05T18:48:48.457Z,6.70
2023-06-05T18:51:21.157Z,6.97
2023-06-05T18:53:53.808Z,7.07
2023-06-05T18:56:27.393Z,6.40
2023-06-05T18:58:59.171Z,6.90
2023-06-05T19:01:31.088Z,6.40
2023-06-05T19:04:02.952Z,7.68
2023-06-05T19:06:34.780Z,5.70
2023-06-05T19:09:06.774Z,6.50
2023-06-05T19:11:40.807Z,6.30
2023-06-05T19:14:12.537Z,6.53
2023-06-05T19:16:44.744Z,6.50
2023-06-05T19:19:16.465Z,6.38
2023-06-05T19:21:48.212Z,5.60
2023-06-05T19:24:19.968Z,7.03
2023-06-05T19:26:51.925Z,5.67
2023-06-05T19:29:23.716Z,5.90
2023-06-05T19:31:55.665Z,6.10
2023-06-05T19:34:27.519Z,6.73
2023-06-05T19:36:59.280Z,6.05
2023-06-05T19:39:31.531Z,7.67
2023-06-05T19:42:05.425Z,7.77
2023-06-05T19:44:37.266Z,5.73
2023-06-05T19:47:09.241Z,5.80
2023-06-05T19:49:41.169Z,11.33
2023-06-05T19:52:12.928Z,6.00
2023-06-05T19:54:44.705Z,6.60
2023-06-05T19:57:16.551Z,6.40
2023-06-05T19:59:48.378Z,6.00
2023-06-05T20:02:20.320Z,7.30
2023-06-05T20:04:52.078Z,5.83
2023-06-05T20:07:23.904Z,7.55
2023-06-05T20:09:55.614Z,5.20
2023-06-05T20:12:27.431Z,7.17
2023-06-05T20:14:59.293Z,6.47
2023-06-05T20:17:31.168Z,6.27
2023-06-05T20:20:04.937Z,7.43
2023-06-05T20:22:36.757Z,6.80
2023-06-05T20:25:09.019Z,7.57
2023-06-05T20:27:40.804Z,8.23
2023-06-05T20:30:13.243Z,10.13
2023-06-05T20:32:45.021Z,6.87
2023-06-05T20:35:21.322Z,7.97
2023-06-05T20:37:56.667Z,9.57
2023-06-05T20:40:30.769Z,7.40
2023-06-05T20:43:05.843Z,8.63
2023-06-05T20:45:42.777Z,8.67
2023-06-05T20:48:16.569Z,7.30
2023-06-05T20:50:50.801Z,7.43
2023-06-05T20:53:22.656Z,7.70
2023-06-05T20:55:54.505Z,8.53
2023-06-05T20:58:26.226Z,10.70
2023-06-05T21:00:58.118Z,12.40
2023-06-05T21:03:30.914Z,7.10
2023-06-05T21:06:02.801Z,8.27
2023-06-05T21:08:34.531Z,6.93
2023-06-05T21:11:07.127Z,6.85
2023-06-05T21:13:38.889Z,8.00
2023-06-05T21:16:10.838Z,7.43
2023-06-05T21:18:42.682Z,8.77
2023-06-05T21:21:14.466Z,7.40
2023-06-05T21:23:46.439Z,6.57
2023-06-05T21:26:20.224Z,6.20
2023-06-05T21:28:52.096Z,6.17
2023-06-05T21:31:23.906Z,5.87
2023-06-05T21:33:55.726Z,6.13
2023-06-05T21:36:27.474Z,6.20
2023-06-05T21:38:59.737Z,6.03
2023-06-05T21:41:31.445Z,7.53
2023-06-05T21:44:03.206Z,6.38
2023-06-05T21:46:34.972Z,6.60
2023-06-05T21:49:06.728Z,6.50
2023-06-05T21:51:38.472Z,6.30
2023-06-05T21:54:10.364Z,7.10
2023-06-05T21:56:42.185Z,6.70
2023-06-05T21:59:13.945Z,6.50
2023-06-05T22:01:45.789Z,7.20
2023-06-05T22:04:17.984Z,7.03
2023-06-05T22:06:49.758Z,7.30
2023-06-05T22:09:21.487Z,6.87
2023-06-05T22:11:53.242Z,5.43
2023-06-05T22:14:26.319Z,7.20
2023-06-05T22:16:58.506Z,6.23
2023-06-05T22:19:31.449Z,6.50
2023-06-05T22:22:03.351Z,7.53
2023-06-05T22:24:35.120Z,6.97
2023-06-05T22:27:07.259Z,6.97
2023-06-05T22:29:39.043Z,7.13
2023-06-05T22:32:10.782Z,7.10
2023-06-05T22:34:42.601Z,8.03
2023-06-05T22:37:14.675Z,5.93
2023-06-05T22:39:46.465Z,6.53
2023-06-05T22:42:18.215Z,7.33
2023-06-05T22:44:50.076Z,6.90
2023-06-05T22:47:21.958Z,6.47
2023-06-05T22:49:56.616Z,7.40
2023-06-05T22:52:33.731Z,6.83
2023-06-05T22:55:06.389Z,9.60
2023-06-05T22:57:38.147Z,7.20
2023-06-05T23:00:12.088Z,7.37
2023-06-05T23:02:44.635Z,6.97
2023-06-05T23:05:16.475Z,7.27
2023-06-05T23:07:50.218Z,7.30
2023-06-05T23:10:22.131Z,6.63
2023-06-05T23:12:53.927Z,6.67
2023-06-05T23:15:27.874Z,6.40
2023-06-05T23:17:59.647Z,7.10
2023-06-05T23:20:31.571Z,6.80
2023-06-05T23:23:03.310Z,6.37
2023-06-05T23:25:35.870Z,6.47
2023-06-05T23:28:11.732Z,6.50
2023-06-05T23:30:43.722Z,6.83
2023-06-05T23:33:15.497Z,7.10
2023-06-05T23:35:47.289Z,6.65
2023-06-05T23:38:19.116Z,6.50
2023-06-05T23:40:51.383Z,6.40
2023-06-05T23:43:23.190Z,6.30
2023-06-05T23:45:55.003Z,6.60
2023-06-05T23:48:27.162Z,6.60
2023-06-05T23:50:59.010Z,6.80
2023-06-05T23:53:30.807Z,11.00
2023-06-05T23:56:02.585Z,6.53
2023-06-05T23:58:34.331Z,7.10
